createdAt,value
2022-08-17T00:00:34.513Z,94.30
2022-08-17T00:00:51.652Z,94.30
2022-08-17T00:01:05.972Z,94.30
2022-08-17T00:01:27.224Z,94.30
2022-08-17T00:01:51.762Z,94.40
2022-08-17T00:02:13.249Z,94.30
2022-08-17T00:02:37.168Z,94.40
2022-08-17T00:03:15.041Z,94.40
2022-08-17T00:03:38.542Z,94.40
2022-08-17T00:03:51.153Z,94.50
2022-08-17T00:04:04.312Z,94.50
2022-08-17T00:04:21.176Z,94.60
2022-08-17T00:04:32.914Z,94.60
2022-08-17T00:04:49.894Z,94.60
2022-08-17T00:05:02.409Z,94.60
2022-08-17T00:05:15.556Z,94.60
2022-08-17T00:05:28.720Z,94.70
2022-08-17T00:05:55.651Z,94.70
2022-08-17T00:06:13.932Z,94.70
2022-08-17T00:06:27.781Z,94.70
2022-08-17T00:06:39.563Z,94.80
2022-08-17T00:06:53.238Z,94.80
2022-08-17T00:07:04.963Z,94.70
2022-08-17T00:07:16.759Z,94.80
2022-08-17T00:07:28.479Z,94.80
2022-08-17T00:07:40.193Z,94.90
2022-08-17T00:07:51.986Z,94.90
2022-08-17T00:08:04.084Z,94.90
2022-08-17T00:08:16.957Z,94.90
2022-08-17T00:08:31.404Z,95.00
2022-08-17T00:08:53.998Z,95.00
2022-08-17T00:09:05.789Z,95.00
2022-08-17T00:09:18.398Z,95.10
2022-08-17T00:09:30.852Z,95.10
2022-08-17T00:09:42.624Z,95.10
2022-08-17T00:09:54.350Z,95.10
2022-08-17T00:10:06.701Z,95.10
2022-08-17T00:10:18.651Z,95.10
2022-08-17T00:10:31.145Z,95.10
2022-08-17T00:10:44.845Z,95.10
2022-08-17T00:10:56.669Z,95.30
2022-08-17T00:11:10.889Z,95.20
2022-08-17T00:11:29.727Z,95.20
2022-08-17T00:11:42.637Z,95.20
2022-08-17T00:12:42.828Z,95.30
2022-08-17T00:12:46.592Z,95.30
2022-08-17T00:12:58.360Z,95.30
2022-08-17T00:13:13.341Z,95.30
2022-08-17T00:13:31.875Z,95.30
2022-08-17T00:13:46.310Z,95.40
2022-08-17T00:14:14.191Z,95.40
2022-08-17T00:14:25.918Z,95.40
2022-08-17T00:14:37.673Z,95.50
2022-08-17T00:14:50.362Z,95.50
2022-08-17T00:15:02.091Z,95.50
2022-08-17T00:15:14.772Z,95.50
2022-08-17T00:15:26.606Z,95.50
2022-08-17T00:15:38.506Z,95.40
2022-08-17T00:15:50.253Z,95.50
2022-08-17T00:16:07.105Z,95.50
2022-08-17T00:16:22.449Z,95.50
2022-08-17T00:16:56.812Z,95.60
2022-08-17T00:17:09.501Z,95.70
2022-08-17T00:17:21.548Z,95.70
2022-08-17T00:17:33.333Z,95.60
2022-08-17T00:17:47.564Z,95.70
2022-08-17T00:17:59.332Z,95.70
2022-08-17T00:19:01.195Z,95.90
2022-08-17T00:19:06.104Z,95.80
2022-08-17T00:19:15.820Z,95.70
2022-08-17T00:19:27.578Z,95.70
2022-08-17T00:19:39.336Z,95.90
2022-08-17T00:22:31.592Z,96.00
2022-08-17T00:22:47.789Z,96.10
2022-08-17T00:23:10.576Z,96.10
2022-08-17T00:23:22.561Z,96.10
2022-08-17T00:23:35.109Z,96.10
2022-08-17T00:23:49.164Z,96.10
2022-08-17T00:24:01.210Z,96.00
2022-08-17T00:24:13.457Z,96.10
2022-08-17T00:24:25.213Z,96.20
2022-08-17T00:24:36.942Z,96.30
2022-08-17T00:24:48.657Z,96.20
2022-08-17T00:25:00.430Z,96.30
2022-08-17T00:25:15.440Z,96.20
2022-08-17T00:25:27.222Z,96.20
2022-08-17T00:25:40.531Z,96.10
2022-08-17T00:25:52.612Z,96.20
2022-08-17T00:26:04.400Z,96.20
2022-08-17T00:26:16.617Z,96.30
2022-08-17T00:26:48.363Z,96.30
2022-08-17T00:27:00.121Z,96.20
2022-08-17T00:27:11.899Z,96.10
2022-08-17T00:27:23.725Z,96.20
2022-08-17T00:27:35.680Z,96.20
2022-08-17T00:27:47.493Z,96.20
2022-08-17T00:27:59.268Z,96.20
2022-08-17T00:28:12.614Z,96.20
2022-08-17T00:28:24.419Z,96.20
2022-08-17T00:28:38.226Z,96.20
2022-08-17T00:28:50.887Z,96.30
2022-08-17T00:29:04.498Z,96.30
2022-08-17T00:29:19.736Z,96.20
2022-08-17T00:29:31.996Z,96.10
2022-08-17T00:29:45.451Z,96.00
2022-08-17T00:29:57.270Z,96.00
2022-08-17T00:30:10.665Z,96.10
2022-08-17T00:30:22.423Z,96.10
2022-08-17T00:30:51.139Z,96.10
2022-08-17T00:31:06.680Z,96.10
2022-08-17T00:31:18.670Z,96.20
2022-08-17T00:31:30.440Z,96.10
2022-08-17T00:31:42.162Z,96.20
2022-08-17T00:31:53.909Z,96.30
2022-08-17T00:33:12.353Z,96.20
2022-08-17T00:33:12.501Z,96.20
2022-08-17T00:33:19.939Z,96.10
2022-08-17T00:33:31.968Z,96.10
2022-08-17T00:33:45.394Z,96.30
2022-08-17T00:33:57.239Z,96.30
2022-08-17T00:34:10.103Z,96.20
2022-08-17T00:34:21.868Z,96.20
2022-08-17T00:34:33.575Z,96.30
2022-08-17T00:34:45.833Z,96.50
2022-08-17T00:34:57.578Z,96.30
2022-08-17T00:35:10.383Z,96.20
2022-08-17T00:35:25.410Z,96.20
2022-08-17T00:35:38.174Z,96.20
2022-08-17T00:35:49.953Z,96.20
2022-08-17T00:36:02.024Z,96.20
2022-08-17T00:36:14.279Z,96.20
2022-08-17T00:36:26.056Z,96.20
2022-08-17T00:36:37.803Z,96.20
2022-08-17T00:36:49.510Z,96.30
2022-08-17T00:37:01.274Z,96.30
2022-08-17T00:37:13.018Z,96.30
2022-08-17T00:37:24.776Z,96.30
2022-08-17T00:37:36.531Z,96.30
2022-08-17T00:37:48.319Z,96.20
2022-08-17T00:38:00.137Z,96.30
2022-08-17T00:38:12.294Z,96.20
2022-08-17T00:38:24.365Z,96.20
2022-08-17T00:38:36.259Z,96.20
2022-08-17T00:38:48.096Z,96.30
2022-08-17T00:38:59.873Z,96.30
2022-08-17T00:39:11.704Z,96.40
2022-08-17T00:39:23.607Z,96.40
2022-08-17T00:39:35.441Z,96.50
2022-08-17T00:39:47.263Z,96.50
2022-08-17T00:39:59.176Z,96.50
2022-08-17T00:40:12.430Z,96.50
2022-08-17T00:40:24.805Z,96.50
2022-08-17T00:40:44.209Z,96.50
2022-08-17T00:40:59.562Z,96.50
2022-08-17T00:41:13.816Z,96.50
2022-08-17T00:41:28.515Z,96.50
2022-08-17T00:41:43.154Z,96.50
2022-08-17T00:41:54.911Z,96.60
2022-08-17T00:42:16.856Z,96.50
2022-08-17T00:42:31.084Z,96.50
2022-08-17T00:42:43.504Z,96.60
2022-08-17T00:42:55.545Z,96.50
2022-08-17T00:43:17.608Z,96.60
2022-08-17T00:43:35.073Z,96.60
2022-08-17T00:43:54.829Z,96.70
2022-08-17T00:44:06.891Z,96.70
2022-08-17T00:44:18.652Z,96.60
2022-08-17T00:44:31.290Z,96.70
2022-08-17T00:44:43.100Z,96.70
2022-08-17T00:44:54.809Z,96.90
2022-08-17T00:45:07.419Z,96.80
2022-08-17T00:45:20.335Z,96.70
2022-08-17T00:45:32.085Z,96.80
2022-08-17T00:45:44.049Z,96.80
2022-08-17T00:45:56.017Z,96.70
2022-08-17T00:46:13.596Z,96.80
2022-08-17T00:46:33.160Z,96.80
2022-08-17T00:46:44.999Z,96.80
2022-08-17T00:46:56.770Z,96.90
2022-08-17T00:47:08.570Z,96.90
2022-08-17T00:47:20.297Z,96.80
2022-08-17T00:47:32.139Z,97.00
2022-08-17T00:47:44.073Z,97.00
2022-08-17T00:47:55.832Z,96.90
2022-08-17T00:48:08.159Z,96.90
2022-08-17T00:48:39.420Z,97.10
2022-08-17T00:48:51.190Z,97.10
2022-08-17T00:49:03.279Z,97.10
2022-08-17T00:49:15.489Z,97.00
2022-08-17T00:49:27.340Z,97.00
2022-08-17T00:49:39.050Z,97.00
2022-08-17T00:49:52.032Z,97.00
2022-08-17T00:50:07.171Z,97.00
2022-08-17T00:50:19.132Z,97.00
2022-08-17T00:50:30.886Z,96.90
2022-08-17T00:50:45.210Z,96.90
2022-08-17T00:51:03.957Z,96.90
2022-08-17T00:51:27.568Z,96.90
2022-08-17T00:51:48.916Z,96.80
2022-08-17T00:52:10.867Z,96.80
2022-08-17T00:52:30.495Z,96.80
2022-08-17T00:52:48.508Z,96.70
2022-08-17T00:53:00.398Z,96.70
2022-08-17T00:53:12.131Z,96.80
2022-08-17T00:53:25.454Z,96.70
2022-08-17T00:53:40.007Z,96.80
2022-08-17T00:53:57.720Z,96.70
2022-08-17T00:54:15.791Z,96.70
2022-08-17T00:54:33.777Z,96.80
2022-08-17T00:54:54.057Z,96.80
2022-08-17T00:55:06.552Z,96.70
2022-08-17T00:55:18.776Z,96.80
2022-08-17T00:55:30.566Z,96.80
2022-08-17T00:55:42.281Z,96.70
2022-08-17T00:55:53.979Z,96.70
2022-08-17T00:56:08.187Z,96.70
2022-08-17T00:56:26.301Z,96.70
2022-08-17T00:56:40.676Z,96.80
2022-08-17T00:56:55.536Z,96.80
2022-08-17T00:57:13.066Z,96.70
2022-08-17T00:57:28.430Z,96.80
2022-08-17T00:57:44.997Z,96.80
2022-08-17T00:57:58.453Z,96.80
2022-08-17T00:58:10.195Z,96.80
2022-08-17T00:58:35.876Z,96.80
2022-08-17T00:58:49.408Z,96.90
2022-08-17T00:59:02.273Z,96.90
2022-08-17T00:59:20.729Z,96.90
2022-08-17T00:59:36.533Z,96.90
2022-08-17T01:00:02.330Z,96.90
2022-08-17T01:00:26.675Z,97.00
2022-08-17T01:00:42.448Z,97.00
2022-08-17T01:00:54.349Z,97.10
2022-08-17T01:01:06.726Z,97.00
2022-08-17T01:01:21.507Z,97.00
2022-08-17T01:01:33.867Z,97.00
2022-08-17T01:01:46.136Z,97.00
2022-08-17T01:01:58.196Z,97.00
2022-08-17T01:02:10.312Z,97.00
2022-08-17T01:02:22.965Z,97.10
2022-08-17T01:02:42.170Z,97.20
2022-08-17T01:02:58.141Z,97.10
2022-08-17T01:03:15.105Z,97.00
2022-08-17T01:03:26.885Z,97.00
2022-08-17T01:03:38.719Z,97.10
2022-08-17T01:03:53.406Z,97.10
2022-08-17T01:04:09.639Z,97.10
2022-08-17T01:04:21.761Z,97.30
2022-08-17T01:04:33.600Z,97.20
2022-08-17T01:04:45.993Z,97.20
2022-08-17T01:04:57.735Z,97.20
2022-08-17T01:05:15.117Z,97.10
2022-08-17T01:05:29.884Z,97.10
2022-08-17T01:05:42.252Z,97.10
2022-08-17T01:05:56.901Z,97.10
2022-08-17T01:06:09.172Z,97.10
2022-08-17T01:06:21.810Z,97.10
2022-08-17T01:06:34.507Z,97.10
2022-08-17T01:06:49.449Z,97.10
2022-08-17T01:07:01.370Z,97.20
2022-08-17T01:07:13.226Z,97.20
2022-08-17T01:07:24.982Z,97.20
2022-08-17T01:07:38.051Z,97.30
2022-08-17T01:07:50.879Z,97.30
2022-08-17T01:08:02.962Z,97.30
2022-08-17T01:08:15.301Z,97.30
2022-08-17T01:08:28.036Z,97.30
2022-08-17T01:08:40.441Z,97.20
2022-08-17T01:08:57.335Z,97.30
2022-08-17T01:09:09.775Z,97.40
2022-08-17T01:09:21.642Z,97.30
2022-08-17T01:09:33.418Z,97.40
2022-08-17T01:09:45.146Z,97.30
2022-08-17T01:09:56.894Z,97.40
2022-08-17T01:10:08.854Z,97.40
2022-08-17T01:10:58.481Z,97.40
2022-08-17T01:11:12.477Z,97.40
2022-08-17T01:11:24.214Z,97.40
2022-08-17T01:11:37.234Z,97.50
2022-08-17T01:11:52.209Z,97.50
2022-08-17T01:12:06.192Z,97.40
2022-08-17T01:12:20.557Z,97.40
2022-08-17T01:12:35.024Z,97.40
2022-08-17T01:12:46.781Z,97.50
2022-08-17T01:13:02.742Z,97.50
2022-08-17T01:13:15.005Z,97.40
2022-08-17T01:13:27.780Z,97.40
2022-08-17T01:13:42.063Z,97.40
2022-08-17T01:13:53.816Z,97.40
2022-08-17T01:14:05.658Z,97.40
2022-08-17T01:14:19.403Z,97.50
2022-08-17T01:14:31.107Z,97.40
2022-08-17T01:14:42.908Z,97.40
2022-08-17T01:14:54.638Z,97.40
2022-08-17T01:15:06.818Z,97.40
2022-08-17T01:15:18.536Z,97.60
2022-08-17T01:15:31.188Z,97.50
2022-08-17T01:15:46.543Z,97.50
2022-08-17T01:16:10.095Z,97.60
2022-08-17T01:16:31.578Z,97.50
2022-08-17T01:16:43.278Z,97.60
2022-08-17T01:16:55.629Z,97.80
2022-08-17T01:17:07.816Z,97.50
2022-08-17T01:17:19.616Z,97.50
2022-08-17T01:17:31.375Z,97.50
2022-08-17T01:17:44.331Z,97.60
2022-08-17T01:17:56.121Z,97.60
2022-08-17T01:18:08.718Z,97.60
2022-08-17T01:18:21.277Z,97.60
2022-08-17T01:18:33.551Z,97.90
2022-08-17T01:18:46.886Z,97.70
2022-08-17T01:19:03.582Z,97.70
2022-08-17T01:19:26.513Z,97.70
2022-08-17T01:19:39.589Z,97.70
2022-08-17T01:19:51.347Z,97.80
2022-08-17T01:20:03.585Z,97.70
2022-08-17T01:20:16.813Z,97.80
2022-08-17T01:20:28.578Z,97.80
2022-08-17T01:20:51.393Z,97.80
2022-08-17T01:21:09.824Z,97.80
2022-08-17T01:21:47.603Z,97.70
2022-08-17T01:22:11.160Z,97.80
2022-08-17T01:22:25.954Z,97.80
2022-08-17T01:22:37.692Z,97.80
2022-08-17T01:22:49.580Z,97.70
2022-08-17T01:23:01.503Z,97.70
2022-08-17T01:23:18.531Z,97.70
2022-08-17T01:23:32.673Z,97.70
2022-08-17T01:23:44.529Z,97.70
2022-08-17T01:23:56.383Z,97.80
2022-08-17T01:24:08.417Z,97.80
2022-08-17T01:24:20.178Z,97.70
2022-08-17T01:24:33.780Z,97.70
2022-08-17T01:24:48.695Z,97.80
2022-08-17T01:25:01.950Z,97.90
2022-08-17T01:25:13.735Z,97.80
2022-08-17T01:25:25.459Z,97.80
2022-08-17T01:25:37.181Z,97.70
2022-08-17T01:25:53.484Z,97.70
2022-08-17T01:26:06.531Z,97.70
2022-08-17T01:26:18.382Z,97.70
2022-08-17T01:26:30.177Z,97.70
2022-08-17T01:26:42.475Z,97.70
2022-08-17T01:26:54.231Z,97.70
2022-08-17T01:27:10.399Z,97.60
2022-08-17T01:27:22.557Z,97.70
2022-08-17T01:27:35.358Z,97.60
2022-08-17T01:27:47.510Z,97.70
2022-08-17T01:27:59.267Z,97.70
2022-08-17T01:28:11.012Z,97.70
2022-08-17T01:28:53.934Z,97.60
2022-08-17T01:29:07.436Z,97.60
2022-08-17T01:29:19.381Z,97.70
2022-08-17T01:29:31.148Z,97.70
2022-08-17T01:29:44.650Z,97.60
2022-08-17T01:30:00.745Z,97.70
2022-08-17T01:30:57.329Z,97.60
2022-08-17T01:30:58.000Z,97.70
2022-08-17T01:31:11.110Z,97.80
2022-08-17T01:31:24.599Z,97.90
2022-08-17T01:31:39.407Z,97.80
2022-08-17T01:31:54.007Z,97.90
2022-08-17T01:32:07.417Z,97.90
2022-08-17T01:32:20.338Z,97.90
2022-08-17T01:32:32.176Z,97.90
2022-08-17T01:32:43.905Z,97.80
2022-08-17T01:32:55.614Z,97.80
2022-08-17T01:33:11.375Z,97.80
2022-08-17T01:33:23.247Z,97.80
2022-08-17T01:33:35.272Z,97.90
2022-08-17T01:33:47.510Z,97.90
2022-08-17T01:34:00.633Z,97.80
2022-08-17T01:34:15.220Z,97.90
2022-08-17T01:34:33.465Z,97.80
2022-08-17T01:34:55.456Z,97.90
2022-08-17T01:35:07.656Z,97.80
2022-08-17T01:35:19.465Z,97.90
2022-08-17T01:35:31.506Z,97.90
2022-08-17T01:35:43.204Z,97.90
2022-08-17T01:35:54.945Z,97.90
2022-08-17T01:36:07.467Z,98.00
2022-08-17T01:36:19.259Z,98.00
2022-08-17T01:36:30.987Z,97.90
2022-08-17T01:36:44.618Z,97.90
2022-08-17T01:36:56.507Z,97.90
2022-08-17T01:37:08.277Z,97.90
2022-08-17T01:37:21.295Z,97.80
2022-08-17T01:37:35.562Z,97.80
2022-08-17T01:37:47.358Z,97.80
2022-08-17T01:37:59.109Z,97.80
2022-08-17T01:38:10.844Z,97.90
2022-08-17T01:38:27.012Z,97.80
2022-08-17T01:38:39.244Z,97.90
2022-08-17T01:38:51.168Z,98.00
2022-08-17T01:39:05.163Z,98.10
2022-08-17T01:39:28.186Z,98.00
2022-08-17T01:39:50.349Z,97.90
2022-08-17T01:40:23.949Z,97.90
2022-08-17T01:40:38.950Z,97.90
2022-08-17T01:40:57.507Z,97.90
2022-08-17T01:41:12.408Z,97.90
2022-08-17T01:41:24.389Z,97.90
2022-08-17T01:41:36.121Z,97.90
2022-08-17T01:41:47.876Z,97.80
2022-08-17T01:42:05.932Z,97.80
2022-08-17T01:42:27.057Z,97.90
2022-08-17T01:42:45.852Z,97.80
2022-08-17T01:43:03.600Z,97.70
2022-08-17T01:43:21.666Z,97.70
2022-08-17T01:43:38.960Z,97.70
2022-08-17T01:44:04.438Z,97.70
2022-08-17T01:44:16.584Z,97.80
2022-08-17T01:44:28.364Z,97.70
2022-08-17T01:44:40.078Z,97.70
2022-08-17T01:44:57.285Z,97.70
2022-08-17T01:45:37.739Z,97.70
2022-08-17T01:46:03.725Z,97.70
2022-08-17T01:46:27.597Z,97.70
2022-08-17T01:46:39.320Z,97.70
2022-08-17T01:46:51.013Z,97.70
2022-08-17T01:47:04.148Z,97.70
2022-08-17T01:47:16.022Z,97.70
2022-08-17T01:47:27.818Z,97.70
2022-08-17T01:47:41.708Z,97.70
2022-08-17T01:47:53.918Z,97.80
2022-08-17T01:48:05.804Z,97.80
2022-08-17T01:48:19.563Z,97.80
2022-08-17T01:48:35.444Z,97.80
2022-08-17T01:48:47.599Z,97.80
2022-08-17T01:48:59.751Z,97.90
2022-08-17T01:49:11.618Z,97.90
2022-08-17T01:49:23.376Z,97.80
2022-08-17T01:49:35.233Z,97.80
2022-08-17T01:49:47.234Z,97.80
2022-08-17T01:50:05.318Z,97.80
2022-08-17T01:50:19.823Z,97.90
2022-08-17T01:50:34.834Z,97.90
2022-08-17T01:50:47.530Z,97.90
2022-08-17T01:50:59.383Z,97.90
2022-08-17T01:51:11.120Z,97.80
2022-08-17T01:51:23.249Z,97.80
2022-08-17T01:51:35.062Z,97.80
2022-08-17T01:51:46.791Z,97.80
2022-08-17T01:51:58.586Z,97.80
2022-08-17T01:52:11.625Z,97.70
2022-08-17T01:52:23.801Z,97.70
2022-08-17T01:52:35.815Z,97.80
2022-08-17T01:52:50.269Z,97.80
2022-08-17T01:53:04.763Z,97.80
2022-08-17T01:53:49.736Z,97.80
2022-08-17T01:54:05.260Z,97.80
2022-08-17T01:54:18.028Z,97.80
2022-08-17T01:54:29.742Z,97.90
2022-08-17T01:54:42.689Z,97.80
2022-08-17T01:54:54.499Z,97.80
2022-08-17T01:55:06.567Z,97.80
2022-08-17T01:55:24.607Z,97.80
2022-08-17T01:55:43.146Z,97.80
2022-08-17T01:56:11.140Z,97.80
2022-08-17T01:56:23.542Z,97.80
2022-08-17T01:56:36.877Z,97.90
2022-08-17T01:56:50.020Z,97.80
2022-08-17T01:57:01.768Z,98.00
2022-08-17T01:57:13.654Z,97.70
2022-08-17T01:57:25.445Z,97.70
2022-08-17T01:57:37.205Z,97.70
2022-08-17T01:57:48.963Z,97.70
2022-08-17T01:58:00.707Z,97.70
2022-08-17T01:58:14.054Z,97.70
2022-08-17T01:58:25.901Z,97.70
2022-08-17T01:58:38.125Z,97.70
2022-08-17T01:58:50.113Z,97.70
2022-08-17T01:59:02.543Z,97.80
2022-08-17T01:59:15.067Z,97.80
2022-08-17T01:59:27.412Z,97.70
2022-08-17T01:59:39.181Z,97.70
2022-08-17T01:59:50.951Z,97.80
2022-08-17T02:00:04.712Z,97.80
2022-08-17T02:00:16.486Z,97.80
2022-08-17T02:00:28.251Z,97.90
2022-08-17T02:01:01.431Z,97.90
2022-08-17T02:01:15.359Z,97.80
2022-08-17T02:01:29.231Z,97.90
2022-08-17T02:01:41.138Z,97.90
2022-08-17T02:01:53.009Z,97.90
2022-08-17T02:02:05.641Z,97.90
2022-08-17T02:02:31.036Z,97.90
2022-08-17T02:02:45.965Z,97.90
2022-08-17T02:02:57.769Z,98.00
2022-08-17T02:03:10.542Z,98.10
2022-08-17T02:03:23.067Z,98.10
2022-08-17T02:03:35.222Z,98.00
2022-08-17T02:03:59.049Z,98.00
2022-08-17T02:04:13.126Z,98.00
2022-08-17T02:04:24.889Z,98.10
2022-08-17T02:04:36.635Z,98.10
2022-08-17T02:04:48.355Z,98.10
2022-08-17T02:05:00.279Z,98.10
2022-08-17T02:05:12.786Z,98.10
2022-08-17T02:05:24.716Z,98.10
2022-08-17T02:05:36.568Z,98.10
2022-08-17T02:05:48.980Z,98.00
2022-08-17T02:06:01.233Z,98.00
2022-08-17T02:06:27.613Z,98.10
2022-08-17T02:06:53.639Z,98.10
2022-08-17T02:07:06.377Z,98.00
2022-08-17T02:07:18.295Z,98.10
2022-08-17T02:07:59.919Z,98.10
2022-08-17T02:08:19.802Z,98.00
2022-08-17T02:08:38.761Z,98.00
2022-08-17T02:09:01.577Z,98.10
2022-08-17T02:09:16.576Z,98.10
2022-08-17T02:09:29.807Z,98.10
2022-08-17T02:09:42.229Z,98.10
2022-08-17T02:09:53.963Z,98.10
2022-08-17T02:10:06.725Z,98.10
2022-08-17T02:10:33.927Z,98.10
2022-08-17T02:10:46.988Z,98.10
2022-08-17T02:10:58.716Z,98.10
2022-08-17T02:11:17.080Z,98.10
2022-08-17T02:11:28.847Z,98.00
2022-08-17T02:11:42.073Z,98.10
2022-08-17T02:11:57.498Z,98.00
2022-08-17T02:12:39.039Z,98.00
2022-08-17T02:12:41.114Z,98.20
2022-08-17T02:12:52.996Z,98.10
2022-08-17T02:13:04.861Z,98.10
2022-08-17T02:13:16.648Z,98.10
2022-08-17T02:13:29.745Z,98.10
2022-08-17T02:13:42.049Z,98.10
2022-08-17T02:13:55.016Z,98.10
2022-08-17T02:14:14.793Z,98.10
2022-08-17T02:14:26.655Z,98.10
2022-08-17T02:14:38.551Z,98.10
2022-08-17T02:14:50.366Z,98.10
2022-08-17T02:15:02.115Z,98.10
2022-08-17T02:15:15.211Z,98.10
2022-08-17T02:15:28.632Z,98.10
2022-08-17T02:15:41.470Z,98.10
2022-08-17T02:15:53.237Z,98.20
2022-08-17T02:16:05.009Z,98.20
2022-08-17T02:16:16.763Z,98.20
2022-08-17T02:16:28.555Z,98.20
2022-08-17T02:16:49.071Z,98.20
2022-08-17T02:17:00.850Z,98.30
2022-08-17T02:17:12.654Z,98.30
2022-08-17T02:17:24.446Z,98.30
2022-08-17T02:17:36.213Z,98.30
2022-08-17T02:17:47.990Z,98.20
2022-08-17T02:18:07.508Z,98.20
2022-08-17T02:18:19.255Z,98.20
2022-08-17T02:18:30.960Z,98.20
2022-08-17T02:18:42.667Z,98.20
2022-08-17T02:18:55.717Z,98.20
2022-08-17T02:19:09.359Z,98.20
2022-08-17T02:19:21.877Z,98.20
2022-08-17T02:19:33.653Z,98.20
2022-08-17T02:19:45.378Z,98.20
2022-08-17T02:19:57.186Z,98.20
2022-08-17T02:20:10.101Z,98.20
2022-08-17T02:20:42.079Z,98.20
2022-08-17T02:20:54.475Z,98.10
2022-08-17T02:21:06.970Z,98.10
2022-08-17T02:21:18.743Z,98.00
2022-08-17T02:21:31.237Z,98.00
2022-08-17T02:21:44.341Z,98.10
2022-08-17T02:21:56.338Z,98.10
2022-08-17T02:22:08.190Z,98.10
2022-08-17T02:22:19.943Z,98.10
2022-08-17T02:22:31.750Z,98.10
2022-08-17T02:22:44.257Z,98.10
2022-08-17T02:22:55.995Z,98.10
2022-08-17T02:23:10.790Z,98.10
2022-08-17T02:23:23.246Z,98.20
2022-08-17T02:23:37.397Z,98.20
2022-08-17T02:23:49.364Z,98.20
2022-08-17T02:24:01.126Z,98.20
2022-08-17T02:24:58.894Z,98.20
2022-08-17T02:24:59.731Z,98.20
2022-08-17T02:25:15.004Z,98.20
2022-08-17T02:25:27.831Z,98.20
2022-08-17T02:25:39.586Z,98.20
2022-08-17T02:25:51.349Z,98.10
2022-08-17T02:26:03.398Z,98.10
2022-08-17T02:26:23.927Z,98.10
2022-08-17T02:26:38.585Z,98.20
2022-08-17T02:26:50.562Z,98.20
2022-08-17T02:27:02.340Z,98.20
2022-08-17T02:27:14.081Z,98.30
2022-08-17T02:27:25.819Z,98.30
2022-08-17T02:27:37.884Z,98.30
2022-08-17T02:27:50.984Z,98.30
2022-08-17T02:28:03.577Z,98.30
2022-08-17T02:28:15.899Z,98.20
2022-08-17T02:28:28.519Z,98.20
2022-08-17T02:28:40.257Z,98.20
2022-08-17T02:28:52.116Z,98.20
2022-08-17T02:29:04.758Z,98.30
2022-08-17T02:29:16.505Z,98.30
2022-08-17T02:29:28.224Z,98.30
2022-08-17T02:29:39.978Z,98.30
2022-08-17T02:29:51.874Z,98.30
2022-08-17T02:30:49.860Z,98.30
2022-08-17T02:30:59.932Z,98.30
2022-08-17T02:31:11.304Z,98.40
2022-08-17T02:31:23.030Z,98.50
2022-08-17T02:31:35.554Z,98.50
2022-08-17T02:31:48.021Z,98.50
2022-08-17T02:32:00.175Z,98.50
2022-08-17T02:32:28.101Z,98.50
2022-08-17T02:32:40.732Z,98.60
2022-08-17T02:32:53.272Z,98.60
2022-08-17T02:33:06.268Z,98.60
2022-08-17T02:33:22.070Z,98.60
2022-08-17T02:33:43.114Z,98.60
2022-08-17T02:34:04.005Z,98.50
2022-08-17T02:34:16.575Z,98.60
2022-08-17T02:34:28.410Z,98.70
2022-08-17T02:34:40.131Z,98.70
2022-08-17T02:34:52.042Z,98.60
2022-08-17T02:35:04.414Z,98.60
2022-08-17T02:35:16.158Z,98.60
2022-08-17T02:35:31.860Z,98.60
2022-08-17T02:35:43.659Z,98.60
2022-08-17T02:35:55.384Z,98.60
2022-08-17T02:36:09.034Z,98.60
2022-08-17T02:36:24.171Z,98.70
2022-08-17T02:36:39.065Z,98.60
2022-08-17T02:36:53.413Z,98.60
2022-08-17T02:37:05.330Z,98.70
2022-08-17T02:37:18.183Z,98.70
2022-08-17T02:37:30.158Z,98.70
2022-08-17T02:37:44.519Z,98.70
2022-08-17T02:38:01.455Z,98.70
2022-08-17T02:38:13.262Z,98.70
2022-08-17T02:38:25.015Z,99.00
2022-08-17T02:38:37.818Z,98.80
2022-08-17T02:38:49.611Z,98.80
2022-08-17T02:39:03.238Z,98.80
2022-08-17T02:39:15.000Z,98.80
2022-08-17T02:39:26.812Z,98.70
2022-08-17T02:39:38.821Z,98.70
2022-08-17T02:39:50.583Z,98.70
2022-08-17T02:40:02.714Z,98.80
2022-08-17T02:40:14.622Z,98.80
2022-08-17T02:40:36.354Z,98.70
2022-08-17T02:40:48.484Z,98.70
2022-08-17T02:41:01.443Z,98.70
2022-08-17T02:41:13.308Z,98.70
2022-08-17T02:41:25.057Z,98.70
2022-08-17T02:41:36.902Z,98.70
2022-08-17T02:41:48.926Z,98.70
2022-08-17T02:42:02.179Z,98.70
2022-08-17T02:42:14.358Z,98.70
2022-08-17T02:42:40.654Z,98.70
2022-08-17T02:42:52.383Z,98.70
2022-08-17T02:43:04.249Z,98.80
2022-08-17T02:43:15.985Z,98.80
2022-08-17T02:43:27.742Z,98.80
2022-08-17T02:43:39.536Z,98.80
2022-08-17T02:43:53.586Z,98.90
2022-08-17T02:44:05.997Z,98.90
2022-08-17T02:44:38.891Z,98.90
2022-08-17T02:44:50.274Z,98.90
2022-08-17T02:45:11.151Z,98.90
2022-08-17T02:45:23.804Z,98.90
2022-08-17T02:45:35.680Z,98.90
2022-08-17T02:45:47.427Z,98.90
2022-08-17T02:45:59.260Z,99.20
2022-08-17T02:46:12.687Z,98.90
2022-08-17T02:46:24.444Z,98.90
2022-08-17T02:46:36.399Z,99.00
2022-08-17T02:46:48.145Z,98.90
2022-08-17T02:47:00.447Z,98.90
2022-08-17T02:47:12.199Z,98.90
2022-08-17T02:47:24.549Z,98.90
2022-08-17T02:47:36.701Z,98.90
2022-08-17T02:47:48.634Z,98.90
2022-08-17T02:48:00.326Z,98.90
2022-08-17T02:48:12.092Z,98.90
2022-08-17T02:48:31.104Z,98.90
2022-08-17T02:48:43.489Z,98.90
2022-08-17T02:48:55.272Z,98.90
2022-08-17T02:49:07.316Z,98.90
2022-08-17T02:49:19.101Z,98.90
2022-08-17T02:49:30.876Z,98.90
2022-08-17T02:49:46.263Z,98.90
2022-08-17T02:50:06.850Z,98.90
2022-08-17T02:50:20.018Z,98.90
2022-08-17T02:50:31.844Z,98.90
2022-08-17T02:50:43.602Z,98.90
2022-08-17T02:50:55.347Z,98.90
2022-08-17T02:51:07.116Z,98.90
2022-08-17T02:51:18.901Z,98.90
2022-08-17T02:51:30.737Z,98.90
2022-08-17T02:51:42.500Z,98.90
2022-08-17T02:51:54.249Z,98.90
2022-08-17T02:52:06.712Z,98.90
2022-08-17T02:52:18.528Z,98.90
2022-08-17T02:53:01.778Z,98.80
2022-08-17T02:53:14.467Z,98.90
2022-08-17T02:53:26.333Z,98.80
2022-08-17T02:53:38.088Z,98.80
2022-08-17T02:53:49.858Z,98.80
2022-08-17T02:54:41.055Z,98.80
2022-08-17T02:54:41.458Z,98.80
2022-08-17T02:54:54.006Z,98.80
2022-08-17T02:55:11.370Z,98.80
2022-08-17T02:55:25.926Z,98.80
2022-08-17T02:55:40.145Z,99.00
2022-08-17T02:55:52.397Z,98.70
2022-08-17T02:56:04.539Z,98.80
2022-08-17T02:56:16.413Z,98.80
2022-08-17T02:56:28.370Z,98.80
2022-08-17T02:56:40.110Z,98.80
2022-08-17T02:56:51.899Z,98.80
2022-08-17T02:57:03.879Z,98.80
2022-08-17T02:57:16.451Z,98.80
2022-08-17T02:57:28.309Z,98.90
2022-08-17T02:57:40.021Z,98.80
2022-08-17T02:57:51.883Z,98.80
2022-08-17T02:58:04.141Z,98.80
2022-08-17T02:58:18.726Z,98.80
2022-08-17T02:58:46.723Z,98.90
2022-08-17T02:58:58.679Z,98.80
2022-08-17T02:59:10.409Z,98.80
2022-08-17T02:59:22.508Z,98.80
2022-08-17T02:59:34.286Z,98.80
2022-08-17T02:59:49.058Z,98.90
2022-08-17T03:00:00.931Z,98.80
2022-08-17T03:00:16.704Z,98.90
2022-08-17T03:00:33.849Z,98.90
2022-08-17T03:00:48.975Z,98.90
2022-08-17T03:01:00.764Z,98.90
2022-08-17T03:01:13.072Z,98.90
2022-08-17T03:01:24.926Z,98.90
2022-08-17T03:01:36.799Z,98.90
2022-08-17T03:01:48.716Z,98.90
2022-08-17T03:02:00.654Z,98.90
2022-08-17T03:02:12.574Z,98.80
2022-08-17T03:02:24.349Z,98.80
2022-08-17T03:02:39.991Z,98.80
2022-08-17T03:02:52.131Z,98.80
2022-08-17T03:03:05.309Z,98.90
2022-08-17T03:03:20.046Z,98.90
2022-08-17T03:03:32.827Z,98.90
2022-08-17T03:03:45.031Z,98.90
2022-08-17T03:03:57.139Z,98.90
2022-08-17T03:04:08.959Z,98.90
2022-08-17T03:04:20.721Z,98.80
2022-08-17T03:04:35.234Z,98.80
2022-08-17T03:04:47.265Z,98.80
2022-08-17T03:04:58.976Z,98.90
2022-08-17T03:05:11.621Z,98.90
2022-08-17T03:05:25.405Z,98.90
2022-08-17T03:05:37.655Z,98.90
2022-08-17T03:05:51.285Z,98.90
2022-08-17T03:06:03.346Z,99.00
2022-08-17T03:06:15.115Z,99.00
2022-08-17T03:06:28.503Z,99.00
2022-08-17T03:06:40.299Z,99.00
2022-08-17T03:06:52.245Z,99.00
2022-08-17T03:07:04.618Z,99.30
2022-08-17T03:07:16.386Z,99.00
2022-08-17T03:07:28.086Z,98.90
2022-08-17T03:07:39.828Z,98.90
2022-08-17T03:07:51.864Z,99.00
2022-08-17T03:08:04.073Z,99.00
2022-08-17T03:08:16.027Z,99.00
2022-08-17T03:08:27.810Z,99.00
2022-08-17T03:08:40.612Z,99.00
2022-08-17T03:08:54.661Z,99.00
2022-08-17T03:09:06.406Z,99.00